Time;durP1;ratioP1;P1;durP2;ratioP2;P2;SDS_P1;SDS_P2;PMS_P1;PMS_P2;Temp;Humidity;BMP_temperature;BMP_pressure;BME280_temperature;BME280_humidity;BME280_pressure;Samples;Min_cycle;Max_cycle;Signal;HPM_P1;HPM_P2
2021/01/02 00:00:51;;;;;;;37.22;20.42;;;;;;;1.11;100.00;95684.66;4965589;28;20133;-45
2021/01/02 00:03:48;;;;;;;41.85;21.13;;;;;;;1.10;100.00;95688.19;4981526;28;20031;-44
2021/01/02 00:06:20;;;;;;;33.72;19.05;;;;;;;1.02;100.00;95689.63;4974321;28;20054;-45
2021/01/02 00:08:50;;;;;;;35.20;20.17;;;;;;;1.14;100.00;95692.22;4954301;28;20055;-48
2021/01/02 00:11:25;;;;;;;36.17;21.33;;;;;;;1.22;100.00;95690.88;4941578;28;20211;-43
2021/01/02 00:14:08;;;;;;;38.58;21.05;;;;;;;1.23;100.00;95682.97;4964255;28;20047;-47
2021/01/02 00:16:46;;;;;;;38.60;21.52;;;;;;;1.28;100.00;95688.69;4965459;28;20055;-43
2021/01/02 00:19:27;;;;;;;40.05;20.60;;;;;;;1.22;100.00;95690.88;4941622;28;20572;-46
2021/01/02 00:22:01;;;;;;;40.75;21.52;;;;;;;1.24;100.00;95686.38;4947076;28;20863;-44
2021/01/02 00:24:37;;;;;;;39.42;21.13;;;;;;;1.16;100.00;95689.50;4939308;28;20062;-44
2021/01/02 00:27:09;;;;;;;37.90;21.40;;;;;;;1.14;100.00;95689.63;4965159;28;20034;-44
2021/01/02 00:30:04;;;;;;;37.95;20.58;;;;;;;1.14;100.00;95694.00;4952316;28;20051;-43
2021/01/02 00:32:40;;;;;;;37.45;20.63;;;;;;;1.16;100.00;95692.94;4950474;28;20043;-47
2021/01/02 00:35:15;;;;;;;36.35;20.70;;;;;;;1.02;100.00;95702.63;4916127;28;22351;-44
2021/01/02 00:37:43;;;;;;;37.55;21.77;;;;;;;1.04;100.00;95703.34;4963019;28;20062;-43
2021/01/02 00:40:13;;;;;;;39.20;21.10;;;;;;;1.08;100.00;95700.44;4925533;28;20054;-44
2021/01/02 00:42:41;;;;;;;39.75;21.08;;;;;;;1.24;100.00;95679.44;4953317;28;20046;-43
2021/01/02 00:45:11;;;;;;;41.70;21.33;;;;;;;1.37;100.00;95680.22;4960797;28;20065;-43
2021/01/02 00:47:40;;;;;;;38.83;21.33;;;;;;;1.41;100.00;95679.09;4946081;28;20039;-44
2021/01/02 00:50:10;;;;;;;39.65;21.77;;;;;;;1.54;100.00;95683.41;4960397;28;20078;-44
2021/01/02 00:52:55;;;;;;;38.33;20.75;;;;;;;1.49;100.00;95698.50;4932947;28;20501;-44
2021/01/02 00:55:49;;;;;;;35.70;20.15;;;;;;;1.33;100.00;95696.97;4980143;28;20082;-44
2021/01/02 00:58:52;;;;;;;36.97;20.85;;;;;;;1.27;100.00;95696.56;4963847;28;20133;-44
2021/01/02 01:01:21;;;;;;;39.08;20.85;;;;;;;1.17;100.00;95698.97;4913631;28;20030;-43
2021/01/02 01:04:20;;;;;;;34.67;18.92;;;;;;;1.08;100.00;95702.22;4943031;28;20051;-44
2021/01/02 01:06:52;;;;;;;38.58;19.98;;;;;;;0.93;100.00;95701.50;4921625;28;20442;-44
2021/01/02 01:09:23;;;;;;;36.53;20.35;;;;;;;1.04;100.00;95695.56;4975733;28;20052;-45
2021/01/02 01:11:53;;;;;;;40.70;21.42;;;;;;;1.02;100.00;95695.66;4915292;28;20047;-43
2021/01/02 01:14:20;;;;;;;37.28;20.15;;;;;;;1.18;100.00;95695.44;4982998;28;20042;-43
2021/01/02 01:16:51;;;;;;;37.67;21.00;;;;;;;1.26;100.00;95693.13;4930855;28;20134;-44
2021/01/02 01:19:20;;;;;;;43.75;22.15;;;;;;;1.43;100.00;95692.78;4950892;28;20046;-44
2021/01/02 01:21:52;;;;;;;38.72;20.42;;;;;;;1.30;100.00;95702.38;4919950;28;20047;-46
2021/01/02 01:24:24;;;;;;;43.35;23.23;;;;;;;1.16;100.00;95705.09;4966282;28;20038;-43
2021/01/02 01:27:12;;;;;;;39.97;21.85;;;;;;;1.13;100.00;95702.72;4924212;28;20133;-52
2021/01/02 01:29:48;;;;;;;39.45;21.30;;;;;;;1.25;100.00;95704.47;4969283;28;20049;-44
2021/01/02 01:32:17;;;;;;;40.10;21.20;;;;;;;1.30;100.00;95704.13;4917235;28;20043;-47
2021/01/02 01:34:45;;;;;;;38.20;21.13;;;;;;;1.18;100.00;95704.06;4952382;28;20054;-46
2021/01/02 01:37:16;;;;;;;36.72;20.77;;;;;;;1.17;100.00;95704.16;4949709;28;20051;-50
2021/01/02 01:39:50;;;;;;;40.08;22.58;;;;;;;1.19;100.00;95705.72;4962524;28;20051;-49
2021/01/02 01:42:19;;;;;;;41.90;21.55;;;;;;;1.35;100.00;95702.88;4952660;28;20529;-44
2021/01/02 01:44:53;;;;;;;42.15;23.17;;;;;;;1.47;100.00;95696.00;4937657;28;20290;-46
2021/01/02 01:47:22;;;;;;;40.72;22.35;;;;;;;1.50;100.00;95703.56;4971128;28;20042;-49
2021/01/02 01:50:21;;;;;;;41.08;20.80;;;;;;;1.43;100.00;95704.94;4914691;28;20047;-47
2021/01/02 01:53:20;;;;;;;36.63;20.77;;;;;;;1.26;100.00;95707.88;4968423;28;20050;-52
2021/01/02 01:56:03;;;;;;;39.00;21.57;;;;;;;1.13;100.00;95706.13;4943882;28;20069;-47
2021/01/02 01:59:09;;;;;;;37.40;20.52;;;;;;;1.26;100.00;95706.13;4932090;28;20773;-43
2021/01/02 02:01:38;;;;;;;40.25;21.17;;;;;;;1.19;100.00;95710.91;4967301;28;20337;-44
2021/01/02 02:04:41;;;;;;;36.67;21.13;;;;;;;1.09;100.00;95709.88;4937120;28;20505;-46
2021/01/02 02:07:15;;;;;;;37.92;20.05;;;;;;;1.16;100.00;95724.09;4968285;28;20057;-43
2021/01/02 02:09:45;;;;;;;37.97;20.17;;;;;;;1.16;100.00;95726.69;4932754;28;20050;-44
2021/01/02 02:12:20;;;;;;;39.45;20.75;;;;;;;1.33;100.00;95716.91;4964626;28;20054;-45
2021/01/02 02:14:55;;;;;;;39.65;21.58;;;;;;;1.35;100.00;95723.66;4917386;28;20049;-43
2021/01/02 02:17:25;;;;;;;39.45;20.75;;;;;;;1.41;100.00;95718.06;4968230;28;20066;-44
2021/01/02 02:19:56;;;;;;;34.20;19.65;;;;;;;1.37;100.00;95714.00;4950841;28;20707;-43
2021/01/02 02:22:25;;;;;;;42.00;20.48;;;;;;;1.30;100.00;95717.94;4965701;28;20046;-47
2021/01/02 02:24:54;;;;;;;38.03;20.60;;;;;;;1.22;100.00;95717.66;4929916;28;20066;-44
2021/01/02 02:27:25;;;;;;;38.42;20.73;;;;;;;1.23;100.00;95715.88;4967178;28;20047;-45
2021/01/02 02:30:06;;;;;;;36.75;20.35;;;;;;;1.19;100.00;95718.69;4915830;28;20560;-43
2021/01/02 02:32:37;;;;;;;37.45;19.38;;;;;;;1.26;100.00;95713.91;4987354;28;20706;-46
2021/01/02 02:35:07;;;;;;;38.55;20.98;;;;;;;1.16;100.00;95710.28;4944665;28;20050;-46
2021/01/02 02:37:37;;;;;;;37.28;21.02;;;;;;;1.15;100.00;95706.03;4958234;28;20059;-44
2021/01/02 02:40:08;;;;;;;40.17;20.67;;;;;;;1.28;100.00;95700.84;4929974;28;22453;-43
2021/01/02 02:42:38;;;;;;;40.40;20.77;;;;;;;1.35;100.00;95697.69;4966102;28;20055;-45
2021/01/02 02:45:09;;;;;;;37.70;19.65;;;;;;;1.42;100.00;95696.31;4931911;28;20062;-45
2021/01/02 02:47:37;;;;;;;36.25;20.17;;;;;;;1.39;100.00;95693.13;4965880;28;20051;-43
2021/01/02 02:50:06;;;;;;;38.92;19.77;;;;;;;1.32;100.00;95689.28;4937091;28;20042;-49
2021/01/02 02:52:36;;;;;;;35.25;19.20;;;;;;;1.24;100.00;95688.97;4933072;28;20046;-45
2021/01/02 02:55:04;;;;;;;35.92;19.42;;;;;;;1.12;100.00;95690.66;4964332;28;20409;-46
2021/01/02 02:57:34;;;;;;;39.17;18.98;;;;;;;0.95;100.00;95684.03;4952059;28;20519;-45
2021/01/02 03:00:01;;;;;;;38.05;19.30;;;;;;;0.71;100.00;95694.31;4962057;28;20106;-43
2021/01/02 03:02:30;;;;;;;36.58;18.60;;;;;;;0.61;100.00;95693.28;4928402;28;20047;-43
2021/01/02 03:04:57;;;;;;;33.05;18.02;;;;;;;0.55;100.00;95685.91;4970203;28;20049;-44
2021/01/02 03:07:25;;;;;;;37.17;18.42;;;;;;;0.46;100.00;95685.59;4915606;28;20038;-47
2021/01/02 03:09:55;;;;;;;36.83;19.55;;;;;;;0.34;100.00;95682.97;4963780;28;20092;-47
2021/01/02 03:12:22;;;;;;;32.00;17.88;;;;;;;0.10;100.00;95691.41;4933198;28;20498;-47
2021/01/02 03:14:58;;;;;;;40.05;19.45;;;;;;;-0.09;100.00;95685.78;4981295;28;20437;-48
2021/01/02 03:17:26;;;;;;;36.45;19.05;;;;;;;-0.23;100.00;95685.84;4924578;28;20105;-46
2021/01/02 03:19:53;;;;;;;37.22;19.92;;;;;;;-0.31;100.00;95684.56;4969360;28;20505;-47
2021/01/02 03:22:20;;;;;;;36.42;19.70;;;;;;;-0.38;100.00;95685.91;4936082;28;20042;-46
2021/01/02 03:24:47;;;;;;;39.92;19.42;;;;;;;-0.38;100.00;95691.06;4962423;28;20449;-45
2021/01/02 03:27:15;;;;;;;39.45;20.35;;;;;;;-0.22;100.00;95690.91;4930668;28;20035;-45
2021/01/02 03:29:41;;;;;;;41.10;19.77;;;;;;;-0.22;100.00;95692.69;4965138;28;20042;-46
2021/01/02 03:32:09;;;;;;;40.33;19.65;;;;;;;-0.38;100.00;95696.25;4930839;28;20049;-44
2021/01/02 03:34:37;;;;;;;35.15;18.30;;;;;;;-0.58;100.00;95710.44;4945270;28;20046;-46
2021/01/02 03:37:04;;;;;;;37.75;19.52;;;;;;;-0.68;100.00;95714.53;4926274;28;20038;-45
2021/01/02 03:39:31;;;;;;;39.58;18.75;;;;;;;-0.77;100.00;95720.25;4946887;28;20031;-46
2021/01/02 03:41:58;;;;;;;36.53;19.35;;;;;;;-0.80;100.00;95718.69;4962264;28;20497;-46
2021/01/02 03:44:25;;;;;;;37.50;19.70;;;;;;;-0.84;100.00;95721.56;4932049;28;20046;-48
2021/01/02 03:46:52;;;;;;;40.38;20.02;;;;;;;-0.84;100.00;95718.97;4968811;28;20048;-43
2021/01/02 03:49:20;;;;;;;39.25;20.35;;;;;;;-0.95;100.00;95724.81;4922102;28;20490;-48
2021/01/02 03:51:47;;;;;;;38.70;19.38;;;;;;;-0.90;100.00;95719.34;4974236;28;20128;-47
2021/01/02 03:54:17;;;;;;;39.55;20.35;;;;;;;-1.01;100.00;95712.22;4934402;28;20382;-46
2021/01/02 03:56:50;;;;;;;37.40;19.80;;;;;;;-1.05;100.00;95711.59;4947092;28;20439;-45
2021/01/02 03:59:17;;;;;;;38.10;19.73;;;;;;;-1.08;100.00;95709.19;4942130;28;20048;-46
2021/01/02 04:01:51;;;;;;;39.75;19.65;;;;;;;-1.02;100.00;95707.97;4968099;28;20090;-44
2021/01/02 04:04:20;;;;;;;41.72;20.10;;;;;;;-0.98;100.00;95712.03;4932218;28;20085;-48
2021/01/02 04:06:50;;;;;;;40.65;20.67;;;;;;;-1.05;100.00;95714.16;4948005;28;20041;-47
2021/01/02 04:09:17;;;;;;;41.20;19.85;;;;;;;-1.14;100.00;95717.28;4917276;28;20035;-47
2021/01/02 04:11:45;;;;;;;36.22;18.77;;;;;;;-1.30;100.00;95714.81;4947518;28;20445;-44
2021/01/02 04:14:12;;;;;;;39.58;20.10;;;;;;;-1.24;100.00;95714.44;4913249;28;20039;-47
2021/01/02 04:16:41;;;;;;;37.38;19.02;;;;;;;-1.18;100.00;95699.47;4948685;28;20050;-45
2021/01/02 04:19:09;;;;;;;37.03;19.45;;;;;;;-1.28;100.00;95705.19;4929288;28;20480;-48
2021/01/02 04:21:37;;;;;;;36.15;19.35;;;;;;;-1.13;100.00;95706.06;4975225;28;20050;-43
2021/01/02 04:24:05;;;;;;;39.95;19.60;;;;;;;-1.11;100.00;95704.19;4908669;28;20041;-45
2021/01/02 04:26:33;;;;;;;41.42;19.52;;;;;;;-1.15;100.00;95699.28;4962206;28;20043;-45
2021/01/02 04:29:00;;;;;;;39.03;20.40;;;;;;;-1.17;100.00;95704.56;4931035;28;20505;-43
2021/01/02 04:31:35;;;;;;;39.80;19.42;;;;;;;-1.18;100.00;95702.06;4963546;28;20043;-47
2021/01/02 04:34:03;;;;;;;38.17;19.92;;;;;;;-1.07;100.00;95697.06;4961125;28;20063;-48
2021/01/02 04:36:30;;;;;;;35.58;18.52;;;;;;;-1.00;100.00;95701.81;4946465;28;20042;-44
2021/01/02 04:38:59;;;;;;;35.33;18.55;;;;;;;-0.98;100.00;95706.88;4949591;28;20035;-44
2021/01/02 04:41:26;;;;;;;39.88;19.30;;;;;;;-0.94;100.00;95708.34;4915101;28;20071;-47
2021/01/02 04:43:54;;;;;;;42.70;19.75;;;;;;;-0.80;100.00;95710.09;4967268;28;20073;-44
2021/01/02 04:46:22;;;;;;;41.78;20.55;;;;;;;-0.65;100.00;95714.34;4927705;28;20053;-43
2021/01/02 04:48:49;;;;;;;41.35;20.48;;;;;;;-0.56;100.00;95708.56;4963595;28;20038;-43
2021/01/02 04:51:17;;;;;;;38.53;19.67;;;;;;;-0.38;100.00;95708.34;4915581;28;20094;-46
2021/01/02 04:53:45;;;;;;;42.05;21.08;;;;;;;-0.29;100.00;95713.78;4964025;28;20051;-45
2021/01/02 04:56:13;;;;;;;42.47;19.83;;;;;;;-0.29;100.00;95711.19;4933680;28;20035;-44
2021/01/02 04:58:41;;;;;;;40.22;20.75;;;;;;;-0.39;100.00;95702.34;4932556;28;20341;-45
2021/01/02 05:01:10;;;;;;;41.03;20.95;;;;;;;-0.41;100.00;95701.63;4924851;28;20576;-44
2021/01/02 05:03:43;;;;;;;41.42;20.67;;;;;;;-0.36;100.00;95704.75;4950994;28;20054;-45
2021/01/02 05:06:11;;;;;;;42.55;21.05;;;;;;;-0.32;100.00;95710.56;4931649;28;20047;-46
2021/01/02 05:08:39;;;;;;;38.90;18.98;;;;;;;-0.28;100.00;95710.25;4976914;28;20058;-44
2021/01/02 05:11:07;;;;;;;43.60;20.98;;;;;;;-0.18;100.00;95704.50;4944907;28;20050;-44
2021/01/02 05:13:37;;;;;;;40.38;19.98;;;;;;;-0.23;100.00;95703.97;4965753;28;20104;-48
2021/01/02 05:16:20;;;;;;;40.42;22.08;;;;;;;-0.35;100.00;95708.97;4929783;28;20520;-45
2021/01/02 05:18:55;;;;;;;40.92;20.33;;;;;;;-0.17;100.00;95708.75;4942125;28;20051;-43
2021/01/02 05:21:23;;;;;;;42.08;20.20;;;;;;;-0.04;100.00;95699.25;4925890;28;20070;-47
2021/01/02 05:24:09;;;;;;;39.53;20.02;;;;;;;-0.02;100.00;95702.59;4963048;28;20509;-47
2021/01/02 05:26:38;;;;;;;44.13;20.00;;;;;;;0.05;100.00;95701.28;4930019;28;20405;-45
2021/01/02 05:29:24;;;;;;;40.15;20.00;;;;;;;0.11;100.00;95706.06;4984733;28;20034;-44
2021/01/02 05:31:52;;;;;;;39.35;20.50;;;;;;;0.22;100.00;95708.78;4920411;28;20098;-44
2021/01/02 05:34:20;;;;;;;41.05;19.30;;;;;;;0.23;100.00;95710.44;4961225;28;20046;-44
2021/01/02 05:36:58;;;;;;;36.47;19.27;;;;;;;0.19;100.00;95703.78;4932656;28;22732;-46
2021/01/02 05:39:34;;;;;;;37.10;18.83;;;;;;;0.26;100.00;95706.81;4958713;28;20613;-44
2021/01/02 05:42:02;;;;;;;39.95;18.83;;;;;;;0.38;100.00;95707.75;4947403;28;20050;-47
2021/01/02 05:44:32;;;;;;;36.40;18.20;;;;;;;0.46;100.00;95714.13;4963621;28;20062;-44
2021/01/02 05:46:59;;;;;;;;;;;;;;;0.39;100.00;95727.59;4932045;28;20750;-46
2021/01/02 05:49:34;;;;;;;36.50;17.38;;;;;;;0.46;100.00;95729.69;4961289;28;20009;-47
2021/01/02 05:52:03;;;;;;;31.52;16.95;;;;;;;0.62;100.00;95728.66;4940459;28;20047;-43
2021/01/02 05:54:31;;;;;;;38.30;17.67;;;;;;;0.65;100.00;95734.50;4947128;28;20038;-44
2021/01/02 05:57:00;;;;;;;37.10;16.63;;;;;;;0.85;100.00;95734.91;4961829;28;20044;-50
2021/01/02 05:59:32;;;;;;;35.92;17.77;;;;;;;0.84;100.00;95733.25;4925396;28;20494;-46
2021/01/02 06:02:18;;;;;;;32.05;16.73;;;;;;;0.87;100.00;95725.28;4979415;28;20043;-44
2021/01/02 06:04:55;;;;;;;33.35;17.17;;;;;;;0.78;100.00;95726.69;4915336;28;20661;-44
2021/01/02 06:07:22;;;;;;;36.75;16.83;;;;;;;0.80;100.00;95717.06;4967312;28;20254;-46
2021/01/02 06:09:51;;;;;;;36.20;16.90;;;;;;;0.89;100.00;95720.78;4910363;28;20046;-43
2021/01/02 06:12:25;;;;;;;34.78;17.17;;;;;;;0.87;100.00;95718.31;4963681;28;20070;-44
2021/01/02 06:14:54;;;;;;;33.15;16.40;;;;;;;0.98;100.00;95720.16;4917375;28;20472;-43
2021/01/02 06:17:27;;;;;;;33.92;16.45;;;;;;;0.97;100.00;95702.13;4967162;28;20121;-49
2021/01/02 06:19:54;;;;;;;35.85;17.98;;;;;;;1.03;100.00;95712.88;4949376;28;20097;-45
2021/01/02 06:22:27;;;;;;;36.97;17.33;;;;;;;1.03;100.00;95715.47;4950895;28;20053;-48
2021/01/02 06:24:54;;;;;;;33.80;16.45;;;;;;;1.03;100.00;95710.28;4913739;28;20051;-44
2021/01/02 06:27:22;;;;;;;31.20;16.08;;;;;;;0.93;100.00;95714.47;4967289;28;20213;-46
2021/01/02 06:29:51;;;;;;;32.42;16.05;;;;;;;0.93;100.00;95723.09;4927552;28;20461;-45
2021/01/02 06:32:20;;;;;;;30.90;16.08;;;;;;;0.89;100.00;95736.34;4967708;28;20035;-43
2021/01/02 06:35:16;;;;;;;34.20;15.75;;;;;;;0.96;100.00;95740.19;4949661;28;20105;-44
2021/01/02 06:38:20;;;;;;;28.50;14.90;;;;;;;0.84;100.00;95752.25;4966203;28;20073;-43
2021/01/02 06:40:49;;;;;;;31.05;15.25;;;;;;;0.78;100.00;95746.63;4932867;28;20295;-44
2021/01/02 06:43:18;;;;;;;30.77;15.57;;;;;;;0.73;100.00;95736.56;4966545;28;20043;-44
2021/01/02 06:45:49;;;;;;;31.10;16.05;;;;;;;0.61;100.00;95732.19;4922312;28;20494;-45
2021/01/02 06:48:43;;;;;;;32.22;17.33;;;;;;;0.60;100.00;95731.34;4966746;28;20556;-44
2021/01/02 06:51:27;;;;;;;35.65;16.33;;;;;;;0.77;100.00;95729.41;4929752;28;20042;-43
2021/01/02 06:53:55;;;;;;;34.10;17.27;;;;;;;0.83;100.00;95729.00;4981245;28;20657;-44
2021/01/02 06:56:33;;;;;;;38.13;21.35;;;;;;;0.84;100.00;95730.66;4945948;28;20035;-46
2021/01/02 06:59:00;;;;;;;39.63;20.70;;;;;;;0.65;100.00;95720.66;4950901;28;20047;-46
2021/01/02 07:01:41;;;;;;;35.97;18.48;;;;;;;0.62;100.00;95732.09;4913163;28;20047;-43
2021/01/02 07:04:09;;;;;;;38.72;19.50;;;;;;;0.61;100.00;95730.41;4967871;28;20702;-49
2021/01/02 07:06:38;;;;;;;44.15;21.65;;;;;;;0.53;100.00;95744.84;4931222;28;20520;-44
2021/01/02 07:09:25;;;;;;;44.22;21.40;;;;;;;0.50;100.00;95738.09;4947288;28;20080;-44
2021/01/02 07:12:14;;;;;;;47.08;20.83;;;;;;;0.77;100.00;95744.97;4935256;28;20049;-46
2021/01/02 07:14:42;;;;;;;45.17;22.15;;;;;;;0.53;100.00;95748.25;4966412;28;20045;-45
2021/01/02 07:17:14;;;;;;;48.17;24.50;;;;;;;0.51;100.00;95752.72;4922844;28;20039;-45
2021/01/02 07:19:50;;;;;;;40.42;20.20;;;;;;;0.44;100.00;95748.84;4965265;28;20429;-44
2021/01/02 07:22:26;;;;;;;47.78;22.65;;;;;;;0.56;100.00;95748.06;4927813;28;20035;-48
2021/01/02 07:25:05;;;;;;;40.63;19.73;;;;;;;0.66;100.00;95746.53;4947464;28;20039;-46
2021/01/02 07:27:36;;;;;;;39.00;21.15;;;;;;;0.61;100.00;95745.16;4948188;28;20043;-45
2021/01/02 07:30:07;;;;;;;42.92;22.83;;;;;;;0.68;100.00;95736.84;4964011;28;20042;-47
2021/01/02 07:32:35;;;;;;;48.38;22.63;;;;;;;0.82;100.00;95737.72;4925232;28;20425;-46
2021/01/02 07:35:05;;;;;;;45.00;22.55;;;;;;;0.97;100.00;95723.72;4969974;28;20066;-44
2021/01/02 07:37:34;;;;;;;50.92;22.48;;;;;;;1.00;100.00;95727.84;4933687;28;20046;-47
2021/01/02 07:40:06;;;;;;;45.40;22.58;;;;;;;1.02;100.00;95732.00;4933001;28;20061;-48
2021/01/02 07:42:34;;;;;;;49.70;23.40;;;;;;;0.98;100.00;95727.97;4924443;28;20058;-46
2021/01/02 07:45:05;;;;;;;48.80;25.30;;;;;;;0.83;100.00;95731.59;4965398;28;20063;-44
2021/01/02 07:47:33;;;;;;;48.85;23.65;;;;;;;0.68;100.00;95733.44;4914774;28;20047;-45
2021/01/02 07:50:04;;;;;;;49.28;22.23;;;;;;;0.73;100.00;95726.19;4958701;28;20480;-46
2021/01/02 07:52:31;;;;;;;47.33;23.30;;;;;;;0.97;100.00;95721.13;4908689;28;20055;-44
2021/01/02 07:54:58;;;;;;;45.88;22.88;;;;;;;0.96;100.00;95732.41;4981965;28;20042;-47
2021/01/02 07:57:26;;;;;;;47.95;23.02;;;;;;;1.05;100.00;95726.59;4945293;28;20042;-46
2021/01/02 07:59:54;;;;;;;46.00;21.85;;;;;;;0.99;100.00;95733.97;4980205;28;20039;-44
2021/01/02 08:02:24;;;;;;;48.83;23.13;;;;;;;0.97;100.00;95730.66;4912273;28;20486;-47
2021/01/02 08:04:52;;;;;;;45.67;22.67;;;;;;;1.03;100.00;95725.88;4967266;28;20058;-47
2021/01/02 08:07:20;;;;;;;46.50;22.27;;;;;;;0.98;100.00;95725.38;4949422;28;20335;-45
2021/01/02 08:09:49;;;;;;;40.58;20.02;;;;;;;1.10;99.91;95724.53;4953616;28;20045;-46
2021/01/02 08:12:17;;;;;;;44.40;21.25;;;;;;;0.80;100.00;95722.25;4978730;28;20047;-49
2021/01/02 08:14:46;;;;;;;45.40;22.02;;;;;;;0.98;100.00;95730.56;4931610;28;20161;-44
2021/01/02 08:17:14;;;;;;;46.17;22.25;;;;;;;0.86;100.00;95736.56;4969697;28;20038;-43
2021/01/02 08:19:55;;;;;;;45.28;21.98;;;;;;;0.79;100.00;95748.28;4928669;28;20114;-47
2021/01/02 08:22:30;;;;;;;57.67;24.23;;;;;;;1.00;100.00;95748.59;4960186;28;20039;-43
2021/01/02 08:24:59;;;;;;;45.60;24.15;;;;;;;0.92;100.00;95751.72;4947872;28;20121;-45
2021/01/02 08:27:27;;;;;;;46.75;23.40;;;;;;;0.95;99.44;95754.13;4964928;28;20035;-45
2021/01/02 08:30:02;;;;;;;44.13;22.50;;;;;;;0.92;100.00;95757.75;4907914;28;20054;-44
2021/01/02 08:32:32;;;;;;;45.35;23.20;;;;;;;0.95;98.86;95762.72;4948844;28;21013;-45
2021/01/02 08:34:59;;;;;;;52.15;26.55;;;;;;;0.84;99.32;95760.03;4935688;28;20047;-48
2021/01/02 08:37:27;;;;;;;55.35;29.55;;;;;;;0.71;100.00;95759.19;4977413;28;20073;-46
2021/01/02 08:40:07;;;;;;;54.58;29.90;;;;;;;0.81;100.00;95757.63;4944868;28;20062;-44
2021/01/02 08:42:35;;;;;;;49.35;23.20;;;;;;;0.87;100.00;95753.81;4945307;28;20047;-44
2021/01/02 08:45:03;;;;;;;56.60;27.35;;;;;;;0.75;100.00;95758.03;4928128;28;20534;-45
2021/01/02 08:47:32;;;;;;;52.70;26.67;;;;;;;0.89;100.00;95759.72;4963907;28;20501;-44
2021/01/02 08:50:07;;;;;;;55.10;26.30;;;;;;;0.88;100.00;95755.47;4922266;28;20106;-44
2021/01/02 08:52:35;;;;;;;52.58;25.02;;;;;;;1.02;99.35;95747.56;4960742;28;20049;-44
2021/01/02 08:55:12;;;;;;;49.63;24.13;;;;;;;0.92;98.98;95757.75;4929654;28;20034;-44
2021/01/02 08:57:44;;;;;;;47.10;23.48;;;;;;;1.14;97.73;95759.75;4945130;28;20055;-43
2021/01/02 09:00:13;;;;;;;50.67;25.52;;;;;;;1.27;96.69;95758.88;4944059;28;20509;-45
2021/01/02 09:02:41;;;;;;;48.13;25.88;;;;;;;1.26;97.01;95759.84;4933300;28;20061;-43
2021/01/02 09:05:10;;;;;;;53.20;27.15;;;;;;;1.27;96.50;95756.28;4926391;28;20639;-44
2021/01/02 09:07:37;;;;;;;44.97;23.55;;;;;;;1.16;98.08;95760.44;4959778;28;20049;-44
2021/01/02 09:10:20;;;;;;;48.40;23.65;;;;;;;1.04;97.05;95760.47;4930050;28;20054;-45
2021/01/02 09:13:07;;;;;;;47.50;25.10;;;;;;;1.35;96.17;95760.03;4980568;28;20054;-48
2021/01/02 09:15:41;;;;;;;46.05;26.50;;;;;;;1.35;94.82;95759.22;4931867;28;20085;-44
2021/01/02 09:18:09;;;;;;;49.50;24.25;;;;;;;1.39;93.66;95766.66;4944577;28;20405;-43
2021/01/02 09:20:36;;;;;;;48.45;23.48;;;;;;;1.42;93.04;95763.88;4923240;28;20050;-48
2021/01/02 09:23:03;;;;;;;50.53;23.52;;;;;;;1.48;91.54;95774.75;4969241;28;20495;-43
2021/01/02 09:25:31;;;;;;;42.13;21.50;;;;;;;1.67;89.70;95777.75;4926545;28;20422;-45
2021/01/02 09:28:10;;;;;;;45.33;23.85;;;;;;;1.47;89.44;95768.75;4965813;28;20498;-44
2021/01/02 09:30:37;;;;;;;43.10;20.80;;;;;;;1.33;90.99;95771.47;4931728;28;20401;-46
2021/01/02 09:33:05;;;;;;;47.53;24.15;;;;;;;1.49;90.14;95769.47;4976306;28;20062;-47
2021/01/02 09:35:32;;;;;;;48.33;21.60;;;;;;;1.64;89.17;95773.59;4949411;28;20548;-47
2021/01/02 09:37:59;;;;;;;44.08;23.95;;;;;;;1.60;89.37;95776.53;4930682;28;20109;-50
2021/01/02 09:40:27;;;;;;;48.67;27.02;;;;;;;1.16;91.38;95777.78;4950133;28;20050;-46
2021/01/02 09:42:54;;;;;;;35.88;18.88;;;;;;;1.24;90.94;95775.53;4932220;28;20039;-43
2021/01/02 09:45:21;;;;;;;47.83;23.75;;;;;;;1.23;91.29;95784.22;4968647;28;20113;-45
2021/01/02 09:47:48;;;;;;;48.15;22.50;;;;;;;1.23;92.33;95767.81;4933973;28;20046;-44
2021/01/02 09:50:15;;;;;;;49.95;23.92;;;;;;;1.56;90.60;95778.50;4961149;28;20101;-44
2021/01/02 09:52:42;;;;;;;47.40;24.15;;;;;;;1.53;90.60;95775.28;4920353;28;20046;-46
2021/01/02 09:55:10;;;;;;;49.33;22.70;;;;;;;1.41;92.24;95785.59;4952092;28;20097;-43
2021/01/02 09:57:38;;;;;;;48.13;23.33;;;;;;;1.28;91.58;95799.53;4932173;28;20916;-44
2021/01/02 10:00:07;;;;;;;46.88;22.85;;;;;;;1.17;91.98;95803.69;4970281;28;20524;-44
2021/01/02 10:02:38;;;;;;;55.60;27.90;;;;;;;1.03;94.39;95793.38;4933506;28;20054;-49
2021/01/02 10:05:06;;;;;;;52.88;26.30;;;;;;;0.81;96.68;95800.94;4982582;28;20517;-46
2021/01/02 10:07:33;;;;;;;59.75;29.08;;;;;;;0.72;97.85;95802.34;4933848;28;20101;-46
2021/01/02 10:10:00;;;;;;;62.33;30.35;;;;;;;0.55;98.48;95800.88;4967476;28;20035;-46
2021/01/02 10:12:28;;;;;;;56.58;26.88;;;;;;;0.64;99.80;95802.03;4922847;28;22508;-49
2021/01/02 10:14:56;;;;;;;63.97;27.48;;;;;;;0.49;100.00;95797.84;4967227;28;20067;-48
2021/01/02 10:17:27;;;;;;;64.95;30.55;;;;;;;0.30;100.00;95795.59;4958229;28;20062;-47
2021/01/02 10:19:55;;;;;;;61.80;29.88;;;;;;;0.43;100.00;95775.72;4968277;28;20034;-44
2021/01/02 10:22:23;;;;;;;68.05;29.08;;;;;;;0.42;100.00;95774.09;4965465;28;20035;-45
2021/01/02 10:24:52;;;;;;;63.00;28.00;;;;;;;0.31;100.00;95787.75;4935625;28;20444;-47
2021/01/02 10:27:19;;;;;;;71.82;32.03;;;;;;;0.30;100.00;95780.03;4952030;28;20042;-46
2021/01/02 10:29:49;;;;;;;56.53;24.33;;;;;;;0.19;100.00;95784.16;4914957;28;20053;-49
2021/01/02 10:32:18;;;;;;;65.38;29.73;;;;;;;0.00;100.00;95778.50;4965758;28;20044;-46
2021/01/02 10:34:45;;;;;;;66.80;29.05;;;;;;;0.22;100.00;95772.78;4917651;28;20055;-46
2021/01/02 10:37:17;;;;;;;52.58;23.42;;;;;;;0.35;100.00;95762.44;4960981;28;20046;-50
2021/01/02 10:39:44;;;;;;;65.20;28.45;;;;;;;0.41;100.00;95754.25;4936530;28;20105;-45
2021/01/02 10:42:12;;;;;;;67.80;29.40;;;;;;;0.55;100.00;95754.19;4934873;28;20047;-45
2021/01/02 10:44:43;;;;;;;69.07;33.70;;;;;;;0.46;100.00;95755.63;4933509;28;20093;-49
2021/01/02 10:47:11;;;;;;;62.65;27.98;;;;;;;0.52;100.00;95744.03;4987111;28;20038;-46
2021/01/02 10:49:38;;;;;;;71.95;32.08;;;;;;;0.33;100.00;95749.56;4929070;28;20413;-45
2021/01/02 10:52:05;;;;;;;75.43;31.60;;;;;;;0.22;100.00;95747.66;4981995;28;20409;-47
2021/01/02 10:54:33;;;;;;;73.80;30.52;;;;;;;0.15;100.00;95758.53;4934394;28;20039;-46
2021/01/02 10:57:00;;;;;;;63.65;26.23;;;;;;;0.38;100.00;95754.44;4965855;28;20576;-46
2021/01/02 10:59:27;;;;;;;65.70;32.15;;;;;;;0.23;100.00;95745.91;4930847;28;21767;-49
2021/01/02 11:01:55;;;;;;;67.35;26.77;;;;;;;0.25;100.00;95741.47;4968403;28;20041;-44
2021/01/02 11:04:23;;;;;;;68.55;31.15;;;;;;;0.17;100.00;95743.69;4935424;28;20046;-49
2021/01/02 11:06:52;;;;;;;69.00;32.58;;;;;;;0.16;100.00;95735.09;4983953;28;20053;-46
2021/01/02 11:09:21;;;;;;;62.90;26.58;;;;;;;0.12;100.00;95731.03;4964180;28;20042;-46
2021/01/02 11:11:50;;;;;;;72.75;33.28;;;;;;;0.08;100.00;95739.13;4936385;28;20438;-46
2021/01/02 11:14:17;;;;;;;75.85;34.72;;;;;;;-0.06;100.00;95743.44;4966523;28;20073;-44
2021/01/02 11:16:47;;;;;;;64.45;28.67;;;;;;;0.05;100.00;95728.94;4925935;28;20039;-46
2021/01/02 11:19:16;;;;;;;62.17;26.05;;;;;;;0.10;100.00;95721.69;4965441;28;20059;-44
2021/01/02 11:21:45;;;;;;;63.38;25.67;;;;;;;0.08;100.00;95726.16;4931987;28;20039;-45
2021/01/02 11:24:15;;;;;;;63.80;27.05;;;;;;;0.09;100.00;95720.88;4964350;28;20043;-44
2021/01/02 11:26:45;;;;;;;65.83;27.50;;;;;;;-0.04;100.00;95723.41;4936434;28;20063;-44
2021/01/02 11:29:12;;;;;;;64.25;28.58;;;;;;;-0.23;100.00;95727.28;4968566;28;20376;-44
2021/01/02 11:31:40;;;;;;;67.68;28.50;;;;;;;-0.13;100.00;95736.97;4924688;28;20571;-45
2021/01/02 11:34:20;;;;;;;62.50;26.60;;;;;;;0.05;100.00;95722.00;4962745;28;20370;-44
2021/01/02 11:36:48;;;;;;;62.53;26.75;;;;;;;-0.05;100.00;95715.75;4934349;28;20313;-45